Time;durP1;ratioP1;P1;durP2;ratioP2;P2;SDS_P1;SDS_P2;PMS_P1;PMS_P2;Temp;Humidity;BMP_temperature;BMP_pressure;BME280_temperature;BME280_humidity;BME280_pressure;Samples;Min_cycle;Max_cycle;Signal;HPM_P1;HPM_P2
2021/12/18 00:00:43;;;;;;;15.35;8.45;;;;;;;-1.23;100.00;91030.19;5135384;27;20460;-65
2021/12/18 00:03:08;;;;;;;14.73;8.75;;;;;;;-1.23;100.00;91037.22;5135242;27;20099;-65
2021/12/18 00:05:34;;;;;;;12.90;8.27;;;;;;;-1.24;100.00;91033.03;5135278;27;20404;-65
2021/12/18 00:08:00;;;;;;;15.90;8.77;;;;;;;-1.31;100.00;91022.72;5135049;27;20401;-65
2021/12/18 00:10:26;;;;;;;13.93;9.02;;;;;;;-1.29;100.00;91025.09;5135112;27;20031;-65
2021/12/18 00:12:52;;;;;;;15.75;8.85;;;;;;;-1.27;100.00;91036.09;5135151;27;20034;-65
2021/12/18 00:15:20;;;;;;;12.90;8.55;;;;;;;-1.31;100.00;91035.78;5134913;27;20051;-66
2021/12/18 00:17:45;;;;;;;13.85;8.25;;;;;;;-1.38;100.00;91036.97;5134936;27;20031;-66
2021/12/18 00:20:16;;;;;;;13.52;8.20;;;;;;;-1.43;100.00;91031.63;5134945;27;20031;-66
2021/12/18 00:22:45;;;;;;;12.82;7.22;;;;;;;-1.46;100.00;91026.88;5135070;27;20015;-65
2021/12/18 00:25:11;;;;;;;12.50;7.47;;;;;;;-1.32;100.00;91036.81;5134878;27;20035;-65
2021/12/18 00:27:38;;;;;;;14.40;8.18;;;;;;;-1.39;100.00;91035.38;5134730;27;20110;-65
2021/12/18 00:30:06;;;;;;;14.80;8.30;;;;;;;-1.37;100.00;91039.34;5134759;27;20062;-65
2021/12/18 00:32:32;;;;;;;14.63;7.78;;;;;;;-1.41;100.00;91040.03;5133470;27;20015;-65
2021/12/18 00:34:57;;;;;;;14.05;8.20;;;;;;;-1.37;100.00;91035.94;5134688;27;20425;-66
2021/12/18 00:37:23;;;;;;;13.88;8.23;;;;;;;-1.42;100.00;91038.44;5134565;27;20081;-65
2021/12/18 00:39:55;;;;;;;14.40;7.88;;;;;;;-1.45;100.00;91028.47;5134574;27;20110;-65
2021/12/18 00:42:41;;;;;;;13.68;7.88;;;;;;;-1.45;100.00;91036.28;5134515;27;20117;-65
2021/12/18 00:45:14;;;;;;;13.93;8.13;;;;;;;-1.56;100.00;91027.50;5133137;27;20135;-65
2021/12/18 00:47:40;;;;;;;15.50;7.90;;;;;;;-1.64;100.00;91031.28;5134376;27;20110;-65
2021/12/18 00:50:08;;;;;;;15.32;8.93;;;;;;;-1.62;100.00;91037.03;5134362;27;20027;-65
2021/12/18 00:52:34;;;;;;;15.80;8.60;;;;;;;-1.64;100.00;91033.88;5134337;27;20023;-65
2021/12/18 00:54:59;;;;;;;13.68;8.18;;;;;;;-1.68;100.00;91026.75;5134209;27;20374;-65
2021/12/18 00:57:25;;;;;;;12.73;7.40;;;;;;;-1.71;100.00;91033.25;5134179;27;20096;-65
2021/12/18 00:59:53;;;;;;;10.05;6.22;;;;;;;-1.59;100.00;91020.94;5134170;27;20144;-65
2021/12/18 01:02:19;;;;;;;11.00;6.03;;;;;;;-1.53;100.00;91024.44;5134020;27;20114;-65
2021/12/18 01:04:44;;;;;;;10.45;7.03;;;;;;;-1.58;100.00;91012.09;5132813;27;20098;-65
2021/12/18 01:07:10;;;;;;;10.65;6.60;;;;;;;-1.56;100.00;91014.47;5133966;27;20504;-65
2021/12/18 01:12:14;;;;;;;8.77;5.82;;;;;;;-1.46;100.00;91019.84;5133918;27;20027;-66
2021/12/18 01:15:01;;;;;;;11.25;6.10;;;;;;;-1.46;100.00;91014.63;5133757;27;20122;-66
2021/12/18 01:22:48;;;;;;;11.73;6.68;;;;;;;-1.69;100.00;91010.31;5133653;27;20051;-66
2021/12/18 01:25:19;;;;;;;11.45;6.75;;;;;;;-1.68;100.00;91017.13;5133678;27;20046;-65
2021/12/18 01:27:45;;;;;;;10.32;5.88;;;;;;;-1.75;100.00;91019.06;5133591;27;20031;-65
2021/12/18 01:30:14;;;;;;;10.23;6.50;;;;;;;-1.71;100.00;91022.81;5133673;27;20114;-65
2021/12/18 01:32:41;;;;;;;10.75;6.75;;;;;;;-1.69;100.00;91020.75;5133555;27;20512;-65
2021/12/18 01:35:07;;;;;;;10.63;6.22;;;;;;;-1.71;100.00;91027.22;5133487;27;20530;-65
2021/12/18 01:37:32;;;;;;;12.93;6.10;;;;;;;-1.70;100.00;91011.34;5133408;27;20560;-65
2021/12/18 01:39:58;;;;;;;13.18;7.00;;;;;;;-1.65;100.00;91032.28;5131978;27;20059;-66
2021/12/18 01:53:20;;;;;;;16.30;9.48;;;;;;;-1.37;100.00;91009.84;5133320;27;20045;-65
2021/12/18 01:55:49;;;;;;;22.42;12.82;;;;;;;-1.26;100.00;91019.44;5132685;27;20031;-65
2021/12/18 01:58:19;;;;;;;36.22;21.98;;;;;;;-1.09;100.00;90996.75;5133231;27;20191;-65
2021/12/18 02:00:45;;;;;;;30.17;19.65;;;;;;;-1.05;100.00;91002.28;5133003;27;20485;-65
2021/12/18 02:03:11;;;;;;;28.15;16.15;;;;;;;-1.12;100.00;91005.03;5132856;27;20057;-66
2021/12/18 02:05:38;;;;;;;18.05;9.95;;;;;;;-1.14;100.00;91011.53;5133199;27;20066;-65
2021/12/18 02:08:05;;;;;;;13.50;8.60;;;;;;;-1.07;100.00;91010.34;5132764;27;20073;-65
2021/12/18 02:10:42;;;;;;;22.90;11.15;;;;;;;-1.09;100.00;91001.97;5132865;27;20065;-65
2021/12/18 02:13:24;;;;;;;10.77;6.68;;;;;;;-1.10;100.00;91008.22;5132815;27;20629;-66
2021/12/18 02:21:22;;;;;;;17.20;9.38;;;;;;;-1.03;100.00;90998.41;5132886;27;20523;-66
2021/12/18 02:23:48;;;;;;;10.48;5.95;;;;;;;-1.05;100.00;90994.44;5132467;27;20038;-66
2021/12/18 02:26:14;;;;;;;16.67;7.40;;;;;;;-0.94;100.00;90989.16;5132505;27;20023;-66
2021/12/18 02:28:44;;;;;;;11.30;6.22;;;;;;;-0.92;100.00;90984.47;5132380;27;20023;-66
2021/12/18 02:31:09;;;;;;;12.60;7.75;;;;;;;-0.82;100.00;91003.94;5132457;27;20127;-64
2021/12/18 02:33:35;;;;;;;16.50;10.55;;;;;;;-0.83;100.00;91002.34;5132450;27;20118;-66
2021/12/18 02:36:05;;;;;;;12.95;7.75;;;;;;;-0.85;100.00;91002.59;5132359;27;20034;-66
2021/12/18 02:39:25;;;;;;;13.73;7.95;;;;;;;-1.06;100.00;90993.66;5132297;27;20519;-66
2021/12/18 02:43:58;;;;;;;25.17;13.18;;;;;;;-1.18;100.00;90985.09;5132414;27;20034;-66
2021/12/18 02:46:25;;;;;;;32.72;16.05;;;;;;;-1.06;100.00;90991.03;5132034;27;20046;-67
2021/12/18 02:48:52;;;;;;;22.90;11.75;;;;;;;-1.09;100.00;90994.13;5132229;27;20019;-66
2021/12/18 02:51:19;;;;;;;17.65;10.13;;;;;;;-1.07;100.00;90999.91;5132136;27;20489;-66
2021/12/18 02:53:49;;;;;;;24.90;15.25;;;;;;;-1.07;100.00;90999.13;5130694;27;20058;-66
2021/12/18 02:56:16;;;;;;;19.55;10.38;;;;;;;-1.15;100.00;91000.28;5132081;27;20023;-66
2021/12/18 02:58:46;;;;;;;12.07;7.47;;;;;;;-1.21;100.00;91001.25;5132208;27;20098;-66
2021/12/18 03:01:18;;;;;;;16.52;8.88;;;;;;;-1.13;100.00;91002.66;5132066;27;20031;-66
2021/12/18 03:03:44;;;;;;;11.48;5.78;;;;;;;-1.44;100.00;91011.78;5131819;27;20107;-66
2021/12/18 03:06:36;;;;;;;12.05;6.57;;;;;;;-1.47;100.00;91013.06;5132219;27;20114;-66
2021/12/18 03:27:45;;;;;;;30.85;14.85;;;;;;;-1.44;100.00;91024.84;5152324;27;20038;-66
2021/12/18 03:30:11;;;;;;;16.38;9.10;;;;;;;-1.40;100.00;91023.38;5152409;27;20038;-65
2021/12/18 03:32:36;;;;;;;20.27;9.65;;;;;;;-1.40;100.00;91018.16;5152405;27;20042;-66
2021/12/18 03:35:03;;;;;;;19.17;8.60;;;;;;;-1.41;100.00;91027.00;5152407;27;20034;-66
2021/12/18 03:37:29;;;;;;;12.60;7.57;;;;;;;-1.44;100.00;91020.41;5152262;27;20095;-66
2021/12/18 03:39:55;;;;;;;15.02;8.25;;;;;;;-1.35;100.00;91026.84;5152267;27;20496;-66
2021/12/18 03:42:20;;;;;;;10.38;7.38;;;;;;;-1.39;100.00;91014.50;5152283;27;20034;-65
2021/12/18 03:44:46;;;;;;;14.10;7.25;;;;;;;-1.36;100.00;91029.69;5152255;27;20062;-65
2021/12/18 03:47:38;;;;;;;12.50;7.47;;;;;;;-1.48;100.00;91028.94;5152159;27;20536;-67
2021/12/18 03:50:04;;;;;;;15.55;7.88;;;;;;;-1.53;100.00;91027.84;5152122;27;20117;-66
2021/12/18 03:52:30;;;;;;;13.00;7.43;;;;;;;-1.56;100.00;91030.13;5152160;27;20470;-66
2021/12/18 03:54:55;;;;;;;11.70;6.70;;;;;;;-1.59;100.00;91039.19;5152218;27;20038;-66
2021/12/18 03:57:21;;;;;;;13.43;6.53;;;;;;;-1.58;100.00;91032.16;5152109;27;20512;-66
2021/12/18 03:59:47;;;;;;;9.95;6.00;;;;;;;-1.56;100.00;91027.50;5152064;27;20045;-66
2021/12/18 04:02:12;;;;;;;12.65;6.75;;;;;;;-1.59;100.00;91031.34;5152022;27;20080;-66
2021/12/18 04:04:38;;;;;;;13.27;6.35;;;;;;;-1.51;100.00;91038.03;5152138;27;20110;-67
2021/12/18 04:07:06;;;;;;;9.68;6.20;;;;;;;-1.54;100.00;91030.69;5152003;27;20035;-67
2021/12/18 04:09:31;;;;;;;14.05;7.25;;;;;;;-1.57;100.00;91034.56;5151985;27;20050;-66
2021/12/18 04:11:58;;;;;;;21.63;10.80;;;;;;;-1.44;100.00;91033.44;5151943;27;20035;-65
2021/12/18 04:14:23;;;;;;;21.77;10.43;;;;;;;-1.40;100.00;91039.03;5151859;27;20111;-65
2021/12/18 04:16:49;;;;;;;11.52;6.30;;;;;;;-1.46;100.00;91040.72;5151892;27;20512;-66
2021/12/18 04:19:15;;;;;;;10.25;6.70;;;;;;;-1.45;100.00;91036.28;5153849;27;20088;-66
2021/12/18 04:21:40;;;;;;;11.38;6.72;;;;;;;-1.46;100.00;91045.94;5155574;27;20038;-66
2021/12/18 04:24:07;;;;;;;17.92;10.00;;;;;;;-1.49;100.00;91058.66;5155449;27;20030;-66
2021/12/18 04:26:33;;;;;;;107.32;45.20;;;;;;;-1.52;100.00;91057.31;5155401;27;20038;-66
2021/12/18 04:29:01;;;;;;;20.10;10.93;;;;;;;-1.53;100.00;91061.75;5151132;27;20035;-66
2021/12/18 04:31:27;;;;;;;13.05;6.10;;;;;;;-1.56;100.00;91057.00;5155433;27;20492;-66
2021/12/18 04:33:53;;;;;;;10.55;6.80;;;;;;;-1.49;100.00;91059.47;5155221;27;20034;-65
2021/12/18 04:36:19;;;;;;;10.35;6.28;;;;;;;-1.45;100.00;91059.78;5155232;27;20465;-66
2021/12/18 04:38:45;;;;;;;7.95;4.97;;;;;;;-1.51;100.00;91059.69;5155298;27;20033;-65
2021/12/18 04:41:12;;;;;;;7.95;5.47;;;;;;;-1.55;100.00;91057.78;5155234;27;20049;-66
2021/12/18 04:43:37;;;;;;;11.52;5.88;;;;;;;-1.52;100.00;91065.94;5155058;27;20039;-65
2021/12/18 04:46:03;;;;;;;8.68;5.38;;;;;;;-1.52;100.00;91063.31;5155094;27;20150;-66
2021/12/18 04:48:32;;;;;;;13.93;7.82;;;;;;;-1.56;100.00;91064.81;5154987;27;20041;-66
2021/12/18 04:50:57;;;;;;;10.73;6.53;;;;;;;-1.63;100.00;91064.16;5155015;27;20034;-66
2021/12/18 04:53:23;;;;;;;11.43;7.25;;;;;;;-1.65;100.00;91068.81;5155020;27;20131;-66
2021/12/18 04:55:48;;;;;;;11.05;6.38;;;;;;;-1.63;100.00;91071.97;5154822;27;20031;-67
2021/12/18 04:58:14;;;;;;;24.10;13.15;;;;;;;-1.51;100.00;91071.94;5154811;27;20432;-66
2021/12/18 05:00:46;;;;;;;10.35;6.97;;;;;;;-1.31;100.00;91071.53;5154852;27;20500;-66
2021/12/18 05:03:13;;;;;;;6.35;4.40;;;;;;;-1.44;100.00;91075.19;5154646;27;20588;-66
2021/12/18 05:05:38;;;;;;;10.57;6.70;;;;;;;-1.63;100.00;91074.59;5154769;27;20038;-65
2021/12/18 05:08:05;;;;;;;9.60;5.97;;;;;;;-1.64;100.00;91075.59;5154635;27;20114;-65
2021/12/18 05:10:31;;;;;;;14.60;7.18;;;;;;;-1.52;100.00;91076.38;5132201;27;20088;-64
2021/12/18 05:12:57;;;;;;;14.27;8.75;;;;;;;-1.56;100.00;91082.28;5113228;28;20102;-66
2021/12/18 05:15:23;;;;;;;19.13;10.20;;;;;;;-1.55;100.00;91095.09;5113129;28;20082;-64
2021/12/18 05:17:48;;;;;;;8.38;5.80;;;;;;;-1.63;100.00;91094.66;5112847;27;20500;-65
2021/12/18 05:20:14;;;;;;;8.82;5.63;;;;;;;-1.58;100.00;91105.19;5111277;28;20035;-64
2021/12/18 05:22:40;;;;;;;10.23;6.85;;;;;;;-1.62;100.00;91112.69;5112723;28;20031;-64
2021/12/18 05:25:07;;;;;;;47.03;24.60;;;;;;;-1.52;100.00;91110.28;5111392;28;20038;-64
2021/12/18 05:27:33;;;;;;;103.45;51.55;;;;;;;-1.48;100.00;91108.00;5112652;27;20066;-64
2021/12/18 05:29:59;;;;;;;13.07;7.80;;;;;;;-1.49;100.00;91108.22;5112001;28;20035;-66
2021/12/18 05:32:24;;;;;;;12.10;7.50;;;;;;;-1.38;100.00;91110.03;5112631;28;20489;-67
2021/12/18 05:34:50;;;;;;;10.60;6.57;;;;;;;-1.45;100.00;91110.13;5112302;28;20038;-68
2021/12/18 05:39:42;;;;;;;11.32;6.53;;;;;;;-1.56;100.00;91113.59;5112669;28;20035;-66
2021/12/18 05:42:07;;;;;;;7.75;5.55;;;;;;;-1.59;100.00;91122.66;5112488;28;20486;-65
2021/12/18 05:44:33;;;;;;;8.35;5.55;;;;;;;-1.54;100.00;91129.81;5112523;28;20093;-68
2021/12/18 05:46:58;;;;;;;15.13;6.70;;;;;;;-1.62;100.00;91125.72;5112279;28;20084;-67
2021/12/18 05:49:24;;;;;;;6.97;4.95;;;;;;;-1.63;100.00;91112.91;5110717;28;20049;-68
2021/12/18 05:51:50;;;;;;;8.18;5.60;;;;;;;-1.64;100.00;91126.97;5112395;28;20417;-67
2021/12/18 05:54:16;;;;;;;10.10;5.75;;;;;;;-1.58;100.00;91131.25;5112269;28;20031;-63
2021/12/18 05:56:42;;;;;;;13.48;5.72;;;;;;;-1.64;100.00;91127.78;5112396;28;20045;-63
2021/12/18 05:59:08;;;;;;;9.82;5.45;;;;;;;-1.70;100.00;91138.34;5112223;28;20126;-62
2021/12/18 06:01:34;;;;;;;17.25;6.70;;;;;;;-1.77;100.00;91138.44;5112111;28;20043;-63
2021/12/18 06:04:01;;;;;;;25.25;12.82;;;;;;;-1.78;100.00;91131.66;5111655;28;20104;-63
2021/12/18 06:06:26;;;;;;;12.60;6.60;;;;;;;-1.75;100.00;91140.81;5111966;28;20049;-62
2021/12/18 06:08:52;;;;;;;11.95;7.22;;;;;;;-1.75;100.00;91136.41;5111884;27;20031;-62
2021/12/18 06:11:20;;;;;;;17.48;10.00;;;;;;;-1.79;100.00;91135.28;5111882;28;20043;-62
2021/12/18 06:13:48;;;;;;;9.52;6.40;;;;;;;-1.76;100.00;91134.81;5111970;28;20138;-62
2021/12/18 06:16:14;;;;;;;12.40;5.53;;;;;;;-1.70;100.00;91136.53;5111587;28;20411;-62
2021/12/18 06:18:44;;;;;;;17.50;9.48;;;;;;;-1.68;100.00;91142.31;5111606;28;20046;-62
2021/12/18 06:21:14;;;;;;;74.20;25.77;;;;;;;-1.61;100.00;91152.59;5111828;28;20035;-64
2021/12/18 06:23:41;;;;;;;28.52;14.00;;;;;;;-1.63;100.00;91160.66;5111654;28;20040;-62
2021/12/18 06:26:06;;;;;;;42.03;20.60;;;;;;;-1.57;100.00;91159.75;5111709;28;20043;-63
2021/12/18 06:28:32;;;;;;;14.05;8.65;;;;;;;-1.63;100.00;91154.66;5111719;28;20046;-62
2021/12/18 06:30:58;;;;;;;37.20;20.25;;;;;;;-1.66;100.00;91160.34;5111741;28;20044;-61
2021/12/18 06:33:23;;;;;;;24.58;14.90;;;;;;;-1.57;100.00;91167.59;5111282;28;20109;-61
2021/12/18 06:35:49;;;;;;;12.82;8.95;;;;;;;-1.43;100.00;91169.91;5111530;28;20500;-61
2021/12/18 06:38:15;;;;;;;15.55;9.93;;;;;;;-1.45;100.00;91177.19;5111303;28;20062;-61
2021/12/18 06:40:42;;;;;;;10.57;6.43;;;;;;;-1.40;100.00;91175.50;5111533;28;20052;-62
2021/12/18 06:43:07;;;;;;;14.27;9.07;;;;;;;-1.39;100.00;91176.28;5111751;28;20043;-62
2021/12/18 06:45:33;;;;;;;32.67;19.27;;;;;;;-1.23;100.00;91183.38;5111347;28;20036;-64
2021/12/18 06:47:59;;;;;;;11.27;7.60;;;;;;;-1.17;100.00;91187.66;5110886;28;20122;-62
2021/12/18 06:50:24;;;;;;;12.40;7.70;;;;;;;-1.15;100.00;91192.66;5116763;27;20087;-62
2021/12/18 06:52:50;;;;;;;15.88;7.35;;;;;;;-1.21;100.00;91183.94;5121883;27;20027;-67
2021/12/18 06:55:16;;;;;;;31.90;16.40;;;;;;;-1.17;100.00;91184.25;5121303;27;20066;-65
2021/12/18 06:57:45;;;;;;;11.30;7.57;;;;;;;-1.12;100.00;91182.53;5120570;27;20111;-67
2021/12/18 07:00:13;;;;;;;22.35;13.52;;;;;;;-1.11;100.00;91191.16;5120206;27;20031;-67
2021/12/18 07:02:40;;;;;;;10.30;6.88;;;;;;;-1.08;100.00;91182.88;5119989;27;20038;-64
2021/12/18 07:05:07;;;;;;;11.15;6.68;;;;;;;-0.82;100.00;91178.91;5121516;27;20127;-65
2021/12/18 07:07:32;;;;;;;11.45;6.68;;;;;;;-0.94;100.00;91186.81;5119882;27;20612;-65
2021/12/18 07:09:58;;;;;;;15.20;8.63;;;;;;;-0.96;100.00;91186.22;5121023;27;20106;-65
2021/12/18 07:12:23;;;;;;;16.45;10.30;;;;;;;-0.87;100.00;91190.06;5121207;28;20039;-66
2021/12/18 07:14:49;;;;;;;24.00;12.18;;;;;;;-0.84;100.00;91199.25;5125294;27;20365;-65
2021/12/18 07:17:14;;;;;;;20.48;11.15;;;;;;;-0.84;100.00;91192.19;5131080;27;20508;-66
2021/12/18 07:19:40;;;;;;;16.98;9.68;;;;;;;-0.87;100.00;91190.06;5130290;27;20389;-67
2021/12/18 07:22:05;;;;;;;11.25;7.38;;;;;;;-1.13;100.00;91196.63;5131402;27;20089;-66
2021/12/18 07:24:31;;;;;;;9.48;6.30;;;;;;;-1.15;100.00;91203.09;5131495;28;20096;-65
2021/12/18 07:26:57;;;;;;;9.98;6.93;;;;;;;-1.12;100.00;91211.25;5130636;27;20463;-68
2021/12/18 07:29:23;;;;;;;10.05;6.68;;;;;;;-1.07;100.00;91211.38;5137098;27;20035;-66
2021/12/18 07:31:50;;;;;;;14.13;6.93;;;;;;;-1.06;100.00;91217.38;5131034;27;20053;-66
2021/12/18 07:34:16;;;;;;;9.73;6.60;;;;;;;-1.01;100.00;91215.66;5130024;27;20031;-69
2021/12/18 07:36:41;;;;;;;28.35;15.23;;;;;;;-0.92;100.00;91219.50;5115478;28;20042;-67
2021/12/18 07:39:07;;;;;;;14.68;10.75;;;;;;;-0.83;100.00;91234.78;5125826;28;20031;-66
2021/12/18 07:41:33;;;;;;;29.40;16.40;;;;;;;-0.87;100.00;91237.06;5122530;27;20034;-67
2021/12/18 07:43:59;;;;;;;49.47;27.60;;;;;;;-0.68;100.00;91235.06;5141087;27;20099;-65
2021/12/18 07:46:25;;;;;;;42.92;26.20;;;;;;;-0.38;100.00;91235.63;5151568;27;20042;-68
2021/12/18 07:48:50;;;;;;;22.67;15.65;;;;;;;-0.21;100.00;91235.63;5151353;27;20506;-69
2021/12/18 07:51:16;;;;;;;22.90;13.27;;;;;;;-0.24;100.00;91243.16;5151542;27;20103;-69
2021/12/18 07:53:42;;;;;;;21.80;14.02;;;;;;;-0.04;100.00;91251.34;5153001;27;20078;-65
2021/12/18 07:56:09;;;;;;;21.85;13.20;;;;;;;-0.05;100.00;91257.59;5155601;27;20066;-68
2021/12/18 07:58:36;;;;;;;18.50;10.40;;;;;;;-0.06;100.00;91253.41;5150086;27;20062;-68
2021/12/18 08:01:03;;;;;;;17.75;9.05;;;;;;;-0.15;100.00;91252.22;5114125;28;20086;-69
2021/12/18 08:03:29;;;;;;;37.22;23.30;;;;;;;-0.50;100.00;91249.75;5113801;28;20494;-71
2021/12/18 08:05:54;;;;;;;44.85;23.15;;;;;;;-0.81;100.00;91253.63;5114115;28;20102;-67
2021/12/18 08:08:20;;;;;;;21.83;11.68;;;;;;;-0.85;100.00;91262.94;5125717;27;20038;-67
2021/12/18 08:10:46;;;;;;;12.93;7.97;;;;;;;-0.76;100.00;91270.19;5155579;27;20496;-70
2021/12/18 08:13:12;;;;;;;50.60;22.58;;;;;;;-0.63;100.00;91269.16;5154952;27;20034;-70
2021/12/18 08:15:37;;;;;;;44.90;18.88;;;;;;;-0.46;100.00;91245.66;5154844;27;20095;-71
2021/12/18 08:18:07;;;;;;;29.65;15.57;;;;;;;-0.40;100.00;91260.41;5141522;27;20031;-68
2021/12/18 08:20:36;;;;;;;17.13;9.38;;;;;;;-0.28;100.00;91268.19;5134473;27;20027;-70
2021/12/18 08:23:02;;;;;;;22.98;12.82;;;;;;;0.12;100.00;91261.00;5132797;27;20019;-66
2021/12/18 08:25:29;;;;;;;11.73;7.82;;;;;;;0.08;100.00;91275.59;5134342;27;20144;-69
2021/12/18 08:27:59;;;;;;;10.70;7.68;;;;;;;-0.03;100.00;91269.41;5134550;27;20023;-69
2021/12/18 08:30:29;;;;;;;14.15;8.82;;;;;;;0.16;100.00;91283.06;5134270;27;20091;-70
2021/12/18 08:32:55;;;;;;;13.55;7.90;;;;;;;0.09;100.00;91289.47;5133765;27;20023;-72
2021/12/18 08:35:21;;;;;;;13.35;8.65;;;;;;;-0.12;100.00;91283.13;5134263;27;20054;-70
2021/12/18 08:37:46;;;;;;;13.98;7.65;;;;;;;-0.11;100.00;91292.56;5134241;27;20054;-70
2021/12/18 08:40:14;;;;;;;26.13;12.45;;;;;;;-0.16;100.00;91287.22;5134115;27;20023;-69
2021/12/18 08:42:40;;;;;;;17.90;10.55;;;;;;;-0.10;100.00;91289.69;5133818;27;20015;-70
2021/12/18 08:45:07;;;;;;;20.50;10.20;;;;;;;0.17;100.00;91292.50;5131991;27;20035;-69
2021/12/18 08:47:32;;;;;;;15.07;8.68;;;;;;;0.14;100.00;91284.31;5132187;27;20035;-70
2021/12/18 08:49:59;;;;;;;21.42;10.57;;;;;;;0.15;100.00;91296.38;5133825;27;20131;-66
2021/12/18 08:52:25;;;;;;;16.90;10.35;;;;;;;0.04;100.00;91294.63;5133870;27;20023;-70
2021/12/18 08:54:51;;;;;;;22.55;12.85;;;;;;;0.27;100.00;91289.25;5133439;27;20035;-70
2021/12/18 08:57:17;;;;;;;10.48;6.70;;;;;;;0.08;100.00;91285.28;5133077;27;20054;-70
2021/12/18 08:59:43;;;;;;;11.63;8.27;;;;;;;-0.05;100.00;91288.97;5133745;27;20054;-70
2021/12/18 09:02:33;;;;;;;13.90;8.07;;;;;;;0.44;100.00;91286.63;5133269;27;20063;-75
2021/12/18 09:04:57;;;;;;;18.67;9.10;;;;;;;0.45;100.00;91282.97;5114628;27;20036;-65
2021/12/18 09:07:25;;;;;;;23.73;10.25;;;;;;;0.70;100.00;91288.59;5113520;28;20035;-65
2021/12/18 09:09:51;;;;;;;20.77;13.60;;;;;;;0.47;100.00;91286.16;5113786;28;20035;-70
2021/12/18 09:12:16;;;;;;;13.13;8.90;;;;;;;0.22;100.00;91276.88;5114132;28;20058;-69
2021/12/18 09:14:42;;;;;;;14.10;7.30;;;;;;;0.01;100.00;91277.59;5113488;28;20134;-69
2021/12/18 09:17:08;;;;;;;15.43;8.55;;;;;;;-0.30;100.00;91286.72;5113024;28;20089;-69
2021/12/18 09:19:34;;;;;;;13.40;8.43;;;;;;;-0.26;100.00;91281.81;5113031;28;20051;-70
2021/12/18 09:21:59;;;;;;;45.80;22.95;;;;;;;-0.34;100.00;91283.78;5112837;28;20062;-71
2021/12/18 09:24:25;;;;;;;92.03;34.13;;;;;;;-0.57;100.00;91283.88;5112947;28;20023;-67
2021/12/18 09:26:51;;;;;;;47.28;19.30;;;;;;;-0.79;100.00;91267.25;5112636;28;20032;-69
2021/12/18 09:29:19;;;;;;;9.77;5.75;;;;;;;-0.75;100.00;91284.06;5112794;28;20035;-71
2021/12/18 09:31:45;;;;;;;10.65;5.82;;;;;;;-0.36;100.00;91280.59;5111388;28;20039;-73
2021/12/18 09:34:10;;;;;;;7.40;4.97;;;;;;;-0.11;100.00;91277.66;5128224;27;20031;-68
2021/12/18 09:36:36;;;;;;;6.70;4.68;;;;;;;0.17;100.00;91278.63;5133423;27;20025;-69
2021/12/18 09:39:03;;;;;;;10.63;8.52;;;;;;;0.05;100.00;91270.06;5133068;27;20035;-69
2021/12/18 09:41:30;;;;;;;16.65;6.95;;;;;;;0.46;100.00;91279.31;5131712;27;20461;-68
2021/12/18 09:43:55;;;;;;;9.02;5.90;;;;;;;0.70;100.00;91266.88;5133150;27;20106;-68
2021/12/18 09:46:21;;;;;;;13.98;8.32;;;;;;;0.78;100.00;91269.84;5133235;27;20106;-68
2021/12/18 09:48:47;;;;;;;20.35;13.23;;;;;;;1.35;100.00;91279.22;5133057;27;20462;-69
2021/12/18 09:51:27;;;;;;;12.85;6.05;;;;;;;1.24;100.00;91278.31;5133131;27;20045;-69
2021/12/18 09:53:55;;;;;;;7.07;4.80;;;;;;;1.18;100.00;91274.84;5133092;27;20035;-69
2021/12/18 09:56:21;;;;;;;14.50;7.68;;;;;;;1.26;100.00;91273.59;5133012;27;20050;-69
2021/12/18 09:58:47;;;;;;;11.95;8.07;;;;;;;1.58;97.08;91273.75;5132862;27;20043;-69
2021/12/18 10:01:14;;;;;;;20.55;13.20;;;;;;;1.90;94.28;91271.19;5133001;27;20106;-69
2021/12/18 10:03:48;;;;;;;8.40;5.85;;;;;;;1.79;89.56;91285.22;5132818;27;20399;-69
2021/12/18 10:06:36;;;;;;;11.95;8.13;;;;;;;1.69;90.00;91277.25;5132628;27;20031;-69
2021/12/18 10:09:07;;;;;;;15.65;9.98;;;;;;;1.26;93.33;91278.84;5132902;27;20071;-68
2021/12/18 10:11:34;;;;;;;14.80;9.13;;;;;;;1.20;91.92;91275.38;5132780;27;20071;-69
2021/12/18 10:14:02;;;;;;;41.55;25.30;;;;;;;1.17;93.58;91273.25;5132726;27;20429;-68
2021/12/18 10:16:29;;;;;;;10.50;6.40;;;;;;;0.88;93.58;91272.63;5132203;27;20558;-68
2021/12/18 10:18:56;;;;;;;30.13;18.40;;;;;;;0.44;99.32;91276.94;5132567;27;20404;-68
2021/12/18 10:21:26;;;;;;;32.72;21.10;;;;;;;0.25;100.00;91271.16;5132453;27;20541;-68
2021/12/18 10:23:53;;;;;;;30.02;18.23;;;;;;;0.42;100.00;91270.38;5132420;27;20031;-68
2021/12/18 10:26:42;;;;;;;21.02;13.35;;;;;;;0.20;100.00;91263.25;5132398;27;20504;-68
2021/12/18 10:29:28;;;;;;;18.10;12.65;;;;;;;0.07;100.00;91266.19;5132643;27;20035;-69
2021/12/18 10:31:55;;;;;;;16.10;10.63;;;;;;;-0.01;100.00;91266.56;5132466;27;20019;-69
2021/12/18 10:34:26;;;;;;;24.95;14.77;;;;;;;-0.32;100.00;91266.06;5132395;27;20031;-70
2021/12/18 10:37:12;;;;;;;20.15;14.43;;;;;;;0.01;100.00;91272.38;5132257;27;20055;-70
2021/12/18 10:39:44;;;;;;;10.82;7.63;;;;;;;0.23;100.00;91273.25;5132071;27;20055;-70
2021/12/18 10:42:25;;;;;;;13.60;7.97;;;;;;;0.13;100.00;91267.84;5132172;27;20080;-70
2021/12/18 10:44:59;;;;;;;11.68;7.32;;;;;;;0.07;100.00;91262.78;5132161;27;20514;-70
2021/12/18 10:47:25;;;;;;;12.63;7.75;;;;;;;0.15;100.00;91271.00;5133059;27;20030;-69
2021/12/18 10:49:51;;;;;;;14.57;8.00;;;;;;;0.18;100.00;91272.38;5133865;27;20027;-69
2021/12/18 10:52:17;;;;;;;15.45;9.90;;;;;;;0.30;100.00;91266.00;5132124;27;20031;-69
2021/12/18 10:54:42;;;;;;;19.10;8.80;;;;;;;0.27;100.00;91263.88;5132120;27;20466;-69
2021/12/18 10:57:27;;;;;;;17.73;10.07;;;;;;;0.18;100.00;91254.06;5131790;27;20035;-69
2021/12/18 10:59:55;;;;;;;19.83;11.43;;;;;;;0.55;100.00;91249.91;5131888;27;20027;-70
2021/12/18 11:02:20;;;;;;;22.70;13.20;;;;;;;0.53;100.00;91251.19;5131769;27;20063;-70
2021/12/18 11:04:46;;;;;;;21.25;10.02;;;;;;;0.17;100.00;91248.03;5132013;27;20051;-69
2021/12/18 11:07:18;;;;;;;30.13;17.13;;;;;;;0.29;100.00;91253.97;5132024;27;20046;-70
2021/12/18 11:10:00;;;;;;;28.45;16.42;;;;;;;0.38;100.00;91262.22;5131909;27;20049;-70
2021/12/18 11:15:10;;;;;;;30.33;18.48;;;;;;;0.80;100.00;91257.34;5131635;28;20127;-70
2021/12/18 11:17:36;;;;;;;13.98;8.90;;;;;;;0.70;100.00;91246.72;5131585;28;20468;-70
2021/12/18 11:20:03;;;;;;;13.02;8.07;;;;;;;0.35;100.00;91243.59;5131568;27;20042;-70
2021/12/18 11:22:30;;;;;;;20.15;12.32;;;;;;;0.22;100.00;91250.72;5131493;27;20088;-70
2021/12/18 11:25:02;;;;;;;15.52;9.52;;;;;;;0.30;100.00;91252.94;5131227;27;20087;-70
2021/12/18 11:27:29;;;;;;;34.00;22.13;;;;;;;0.12;100.00;91257.59;5131576;27;20035;-70
2021/12/18 11:30:10;;;;;;;22.02;12.45;;;;;;;-0.05;100.00;91254.97;5135122;27;20442;-69
2021/12/18 11:32:40;;;;;;;18.20;13.23;;;;;;;-0.17;100.00;91252.44;5151570;27;20023;-69
2021/12/18 11:35:10;;;;;;;22.23;13.10;;;;;;;0.04;100.00;91260.63;5156483;27;20519;-69
2021/12/18 11:37:59;;;;;;;15.85;10.25;;;;;;;0.09;100.00;91253.66;5155289;27;20111;-69
2021/12/18 11:40:31;;;;;;;22.35;11.98;;;;;;;-0.28;100.00;91261.16;5156402;27;20030;-69
2021/12/18 11:42:56;;;;;;;20.33;10.73;;;;;;;-0.27;100.00;91254.09;5156274;27;20023;-69
2021/12/18 11:45:31;;;;;;;22.38;13.23;;;;;;;-0.20;100.00;91257.34;5156447;27;20034;-69
2021/12/18 11:47:59;;;;;;;15.82;9.73;;;;;;;-0.03;100.00;91245.06;5156261;27;20027;-69
2021/12/18 11:50:32;;;;;;;21.73;10.80;;;;;;;0.30;100.00;91234.63;5156273;27;20026;-69
2021/12/18 11:53:04;;;;;;;9.82;6.93;;;;;;;0.38;100.00;91246.50;5156212;27;20084;-69
2021/12/18 11:55:49;;;;;;;10.20;5.20;;;;;;;0.44;100.00;91242.13;5154797;27;20411;-69
2021/12/18 11:58:17;;;;;;;12.07;6.45;;;;;;;0.48;100.00;91232.78;5156384;27;20026;-69
2021/12/18 12:00:55;;;;;;;10.45;7.93;;;;;;;0.29;100.00;91240.88;5156117;27;20026;-69
2021/12/18 12:03:37;;;;;;;21.23;13.77;;;;;;;0.23;100.00;91241.84;5155976;27;20019;-69
2021/12/18 12:06:28;;;;;;;10.43;6.38;;;;;;;-0.20;100.00;91244.28;5156126;27;20039;-69
2021/12/18 12:09:35;;;;;;;18.30;10.38;;;;;;;-0.42;100.00;91249.41;5155780;27;20022;-69
2021/12/18 12:12:04;;;;;;;18.70;11.57;;;;;;;-0.54;100.00;91246.03;5155692;27;20022;-69